sensor_id;sensor_type;location;lat;lon;timestamp;temperature;humidity
19829;DHT22;10075;50.924;4.396;2022-09-02T00:01:14;20.20;82.40
19829;DHT22;10075;50.924;4.396;2022-09-02T00:03:42;20.10;82.80
19829;DHT22;10075;50.924;4.396;2022-09-02T00:06:11;20.10;83.10
19829;DHT22;10075;50.924;4.396;2022-09-02T00:08:39;20.00;83.10
19829;DHT22;10075;50.924;4.396;2022-09-02T00:11:07;20.00;83.40
19829;DHT22;10075;50.924;4.396;2022-09-02T00:13:38;20.00;83.40
19829;DHT22;10075;50.924;4.396;2022-09-02T00:16:06;20.00;83.50
19829;DHT22;10075;50.924;4.396;2022-09-02T00:18:35;19.90;83.60
19829;DHT22;10075;50.924;4.396;2022-09-02T00:21:03;19.90;84.50
19829;DHT22;10075;50.924;4.396;2022-09-02T00:23:31;19.90;83.90
19829;DHT22;10075;50.924;4.396;2022-09-02T00:25:58;19.80;84.00
19829;DHT22;10075;50.924;4.396;2022-09-02T00:28:25;19.80;84.10
19829;DHT22;10075;50.924;4.396;2022-09-02T00:30:52;19.80;84.00
19829;DHT22;10075;50.924;4.396;2022-09-02T00:33:19;19.90;84.00
19829;DHT22;10075;50.924;4.396;2022-09-02T00:35:47;19.80;84.10
19829;DHT22;10075;50.924;4.396;2022-09-02T00:38:15;19.80;84.20
19829;DHT22;10075;50.924;4.396;2022-09-02T00:40:45;19.80;84.30
19829;DHT22;10075;50.924;4.396;2022-09-02T00:43:23;19.70;84.40
19829;DHT22;10075;50.924;4.396;2022-09-02T00:45:50;19.70;84.50
19829;DHT22;10075;50.924;4.396;2022-09-02T00:48:18;19.60;84.80
19829;DHT22;10075;50.924;4.396;2022-09-02T00:50:45;19.60;85.40
19829;DHT22;10075;50.924;4.396;2022-09-02T00:53:13;19.40;86.00
19829;DHT22;10075;50.924;4.396;2022-09-02T00:55:45;19.40;86.40
19829;DHT22;10075;50.924;4.396;2022-09-02T00:58:16;19.40;86.60
19829;DHT22;10075;50.924;4.396;2022-09-02T01:00:46;19.30;86.50
19829;DHT22;10075;50.924;4.396;2022-09-02T01:03:19;19.30;86.50
19829;DHT22;10075;50.924;4.396;2022-09-02T01:05:49;19.30;86.60
19829;DHT22;10075;50.924;4.396;2022-09-02T01:08:19;19.30;86.40
19829;DHT22;10075;50.924;4.396;2022-09-02T01:10:49;19.20;86.60
19829;DHT22;10075;50.924;4.396;2022-09-02T01:13:19;19.20;87.20
19829;DHT22;10075;50.924;4.396;2022-09-02T01:15:48;19.10;88.00
19829;DHT22;10075;50.924;4.396;2022-09-02T01:18:18;19.10;88.80
19829;DHT22;10075;50.924;4.396;2022-09-02T01:20:46;18.90;89.10
19829;DHT22;10075;50.924;4.396;2022-09-02T01:23:15;18.90;89.60
19829;DHT22;10075;50.924;4.396;2022-09-02T01:25:43;18.80;90.00
19829;DHT22;10075;50.924;4.396;2022-09-02T01:28:13;18.70;90.10
19829;DHT22;10075;50.924;4.396;2022-09-02T01:30:44;18.70;90.00
19829;DHT22;10075;50.924;4.396;2022-09-02T01:33:11;18.70;90.10
19829;DHT22;10075;50.924;4.396;2022-09-02T01:35:38;18.60;90.30
19829;DHT22;10075;50.924;4.396;2022-09-02T01:38:06;18.50;90.50
19829;DHT22;10075;50.924;4.396;2022-09-02T01:40:35;18.40;90.60
19829;DHT22;10075;50.924;4.396;2022-09-02T01:43:05;18.40;90.70
19829;DHT22;10075;50.924;4.396;2022-09-02T01:45:33;18.30;90.70
19829;DHT22;10075;50.924;4.396;2022-09-02T01:48:01;18.30;90.90
19829;DHT22;10075;50.924;4.396;2022-09-02T01:50:28;18.30;91.00
19829;DHT22;10075;50.924;4.396;2022-09-02T01:52:56;18.30;91.10
19829;DHT22;10075;50.924;4.396;2022-09-02T01:55:23;18.30;91.00
19829;DHT22;10075;50.924;4.396;2022-09-02T01:57:52;18.30;90.90
19829;DHT22;10075;50.924;4.396;2022-09-02T02:00:19;18.30;90.70
19829;DHT22;10075;50.924;4.396;2022-09-02T02:02:46;18.40;90.70
19829;DHT22;10075;50.924;4.396;2022-09-02T02:05:14;18.40;90.60
19829;DHT22;10075;50.924;4.396;2022-09-02T02:07:41;18.50;90.90
19829;DHT22;10075;50.924;4.396;2022-09-02T02:10:09;18.50;90.50
19829;DHT22;10075;50.924;4.396;2022-09-02T02:12:36;18.50;90.50
19829;DHT22;10075;50.924;4.396;2022-09-02T02:15:07;18.50;90.60
19829;DHT22;10075;50.924;4.396;2022-09-02T02:17:35;18.40;90.90
19829;DHT22;10075;50.924;4.396;2022-09-02T02:20:02;18.30;91.10
19829;DHT22;10075;50.924;4.396;2022-09-02T02:22:30;18.20;91.20
19829;DHT22;10075;50.924;4.396;2022-09-02T02:24:57;18.10;91.60
19829;DHT22;10075;50.924;4.396;2022-09-02T02:27:24;18.00;91.80
19829;DHT22;10075;50.924;4.396;2022-09-02T02:29:51;18.00;91.90
19829;DHT22;10075;50.924;4.396;2022-09-02T02:32:20;17.90;91.90
19829;DHT22;10075;50.924;4.396;2022-09-02T02:34:47;17.80;92.20
19829;DHT22;10075;50.924;4.396;2022-09-02T02:37:14;17.70;92.40
19829;DHT22;10075;50.924;4.396;2022-09-02T02:39:44;17.70;92.40
19829;DHT22;10075;50.924;4.396;2022-09-02T02:42:11;17.60;92.50
19829;DHT22;10075;50.924;4.396;2022-09-02T02:44:39;17.60;92.60
19829;DHT22;10075;50.924;4.396;2022-09-02T02:47:07;17.60;92.80
19829;DHT22;10075;50.924;4.396;2022-09-02T02:49:37;17.60;92.80
19829;DHT22;10075;50.924;4.396;2022-09-02T02:52:04;17.60;92.80
19829;DHT22;10075;50.924;4.396;2022-09-02T02:54:32;17.60;92.80
19829;DHT22;10075;50.924;4.396;2022-09-02T02:56:59;17.70;92.80
19829;DHT22;10075;50.924;4.396;2022-09-02T02:59:26;17.60;92.80
19829;DHT22;10075;50.924;4.396;2022-09-02T03:01:54;17.60;92.80
19829;DHT22;10075;50.924;4.396;2022-09-02T03:04:23;17.60;92.80
19829;DHT22;10075;50.924;4.396;2022-09-02T03:06:51;17.60;92.90
19829;DHT22;10075;50.924;4.396;2022-09-02T03:09:18;17.60;93.00
19829;DHT22;10075;50.924;4.396;2022-09-02T03:11:46;17.60;93.20
19829;DHT22;10075;50.924;4.396;2022-09-02T03:14:13;17.50;93.30
19829;DHT22;10075;50.924;4.396;2022-09-02T03:16:41;17.50;93.00
19829;DHT22;10075;50.924;4.396;2022-09-02T03:19:09;17.50;92.80
19829;DHT22;10075;50.924;4.396;2022-09-02T03:21:39;17.60;92.70
19829;DHT22;10075;50.924;4.396;2022-09-02T03:24:08;17.60;92.70
19829;DHT22;10075;50.924;4.396;2022-09-02T03:26:36;17.60;92.60
19829;DHT22;10075;50.924;4.396;2022-09-02T03:29:03;17.60;92.50
19829;DHT22;10075;50.924;4.396;2022-09-02T03:31:30;17.70;92.40
19829;DHT22;10075;50.924;4.396;2022-09-02T03:34:00;17.70;92.30
19829;DHT22;10075;50.924;4.396;2022-09-02T03:36:31;17.70;92.30
19829;DHT22;10075;50.924;4.396;2022-09-02T03:38:59;17.70;92.40
19829;DHT22;10075;50.924;4.396;2022-09-02T03:41:28;17.70;92.30
19829;DHT22;10075;50.924;4.396;2022-09-02T03:43:55;17.70;92.30
19829;DHT22;10075;50.924;4.396;2022-09-02T03:46:23;17.70;92.40
19829;DHT22;10075;50.924;4.396;2022-09-02T03:48:50;17.60;92.50
19829;DHT22;10075;50.924;4.396;2022-09-02T03:51:17;17.60;92.60
19829;DHT22;10075;50.924;4.396;2022-09-02T03:53:44;17.60;92.60
19829;DHT22;10075;50.924;4.396;2022-09-02T03:56:13;17.50;92.60
19829;DHT22;10075;50.924;4.396;2022-09-02T03:58:44;17.60;92.70
19829;DHT22;10075;50.924;4.396;2022-09-02T04:01:13;17.50;92.70
19829;DHT22;10075;50.924;4.396;2022-09-02T04:03:41;17.50;93.00
19829;DHT22;10075;50.924;4.396;2022-09-02T04:06:09;17.40;93.10
19829;DHT22;10075;50.924;4.396;2022-09-02T04:08:37;17.40;93.10
19829;DHT22;10075;50.924;4.396;2022-09-02T04:11:06;17.40;93.30
19829;DHT22;10075;50.924;4.396;2022-09-02T04:13:35;17.40;93.30
19829;DHT22;10075;50.924;4.396;2022-09-02T04:16:07;17.40;93.50
19829;DHT22;10075;50.924;4.396;2022-09-02T04:18:35;17.40;93.30
19829;DHT22;10075;50.924;4.396;2022-09-02T04:21:02;17.30;93.50
19829;DHT22;10075;50.924;4.396;2022-09-02T04:23:29;17.40;93.50
19829;DHT22;10075;50.924;4.396;2022-09-02T04:25:56;17.30;93.50
19829;DHT22;10075;50.924;4.396;2022-09-02T04:28:23;17.30;93.50
19829;DHT22;10075;50.924;4.396;2022-09-02T04:30:51;17.30;93.40
19829;DHT22;10075;50.924;4.396;2022-09-02T04:33:19;17.30;93.50
19829;DHT22;10075;50.924;4.396;2022-09-02T04:35:46;17.30;93.70
19829;DHT22;10075;50.924;4.396;2022-09-02T04:38:14;17.20;93.80
19829;DHT22;10075;50.924;4.396;2022-09-02T04:40:43;17.20;93.80
19829;DHT22;10075;50.924;4.396;2022-09-02T04:43:11;17.20;93.80
19829;DHT22;10075;50.924;4.396;2022-09-02T04:45:39;17.20;94.00
19829;DHT22;10075;50.924;4.396;2022-09-02T04:48:06;17.10;94.20
19829;DHT22;10075;50.924;4.396;2022-09-02T04:50:37;17.10;94.20
19829;DHT22;10075;50.924;4.396;2022-09-02T04:53:05;17.20;94.10
19829;DHT22;10075;50.924;4.396;2022-09-02T04:55:33;17.10;94.30
19829;DHT22;10075;50.924;4.396;2022-09-02T04:58:00;17.10;94.40
19829;DHT22;10075;50.924;4.396;2022-09-02T05:00:27;17.10;94.20
19829;DHT22;10075;50.924;4.396;2022-09-02T05:02:54;17.10;94.20
19829;DHT22;10075;50.924;4.396;2022-09-02T05:05:21;17.20;94.20
19829;DHT22;10075;50.924;4.396;2022-09-02T05:07:50;17.10;94.30
19829;DHT22;10075;50.924;4.396;2022-09-02T05:10:20;17.10;94.60
19829;DHT22;10075;50.924;4.396;2022-09-02T05:12:47;17.00;94.70
19829;DHT22;10075;50.924;4.396;2022-09-02T05:15:14;17.00;94.80
19829;DHT22;10075;50.924;4.396;2022-09-02T05:17:41;17.00;94.80
19829;DHT22;10075;50.924;4.396;2022-09-02T05:20:08;16.90;94.80
19829;DHT22;10075;50.924;4.396;2022-09-02T05:22:35;16.90;95.00
19829;DHT22;10075;50.924;4.396;2022-09-02T05:25:07;16.80;95.30
19829;DHT22;10075;50.924;4.396;2022-09-02T05:27:35;16.80;95.40
19829;DHT22;10075;50.924;4.396;2022-09-02T05:30:04;16.90;95.40
19829;DHT22;10075;50.924;4.396;2022-09-02T05:32:31;16.90;95.40
19829;DHT22;10075;50.924;4.396;2022-09-02T05:34:58;16.90;95.50
19829;DHT22;10075;50.924;4.396;2022-09-02T05:37:25;17.00;95.80
19829;DHT22;10075;50.924;4.396;2022-09-02T05:39:53;17.30;95.80
19829;DHT22;10075;50.924;4.396;2022-09-02T05:42:21;17.60;96.00
19829;DHT22;10075;50.924;4.396;2022-09-02T05:44:48;18.00;95.60
19829;DHT22;10075;50.924;4.396;2022-09-02T05:47:15;18.20;94.50
19829;DHT22;10075;50.924;4.396;2022-09-02T05:49:43;18.40;93.90
19829;DHT22;10075;50.924;4.396;2022-09-02T05:52:11;18.40;93.40
19829;DHT22;10075;50.924;4.396;2022-09-02T05:54:39;18.30;93.40
19829;DHT22;10075;50.924;4.396;2022-09-02T05:57:08;18.00;93.80
19829;DHT22;10075;50.924;4.396;2022-09-02T05:59:39;17.80;94.30
19829;DHT22;10075;50.924;4.396;2022-09-02T06:02:08;17.70;94.70
19829;DHT22;10075;50.924;4.396;2022-09-02T06:04:39;17.70;94.80
19829;DHT22;10075;50.924;4.396;2022-09-02T06:07:07;17.80;94.90
19829;DHT22;10075;50.924;4.396;2022-09-02T06:09:34;17.80;95.10
19829;DHT22;10075;50.924;4.396;2022-09-02T06:12:02;17.80;95.10
19829;DHT22;10075;50.924;4.396;2022-09-02T06:14:29;17.80;95.10
19829;DHT22;10075;50.924;4.396;2022-09-02T06:16:58;17.90;95.10
19829;DHT22;10075;50.924;4.396;2022-09-02T06:19:26;17.90;95.10
19829;DHT22;10075;50.924;4.396;2022-09-02T06:21:55;18.00;95.20
19829;DHT22;10075;50.924;4.396;2022-09-02T06:24:22;18.10;95.10
19829;DHT22;10075;50.924;4.396;2022-09-02T06:26:50;18.10;95.10
19829;DHT22;10075;50.924;4.396;2022-09-02T06:29:18;18.20;95.00
19829;DHT22;10075;50.924;4.396;2022-09-02T06:31:46;18.30;94.90
19829;DHT22;10075;50.924;4.396;2022-09-02T06:34:18;18.40;94.80
19829;DHT22;10075;50.924;4.396;2022-09-02T06:36:46;18.40;94.70
19829;DHT22;10075;50.924;4.396;2022-09-02T06:39:15;18.50;94.50
19829;DHT22;10075;50.924;4.396;2022-09-02T06:41:43;18.60;94.40
19829;DHT22;10075;50.924;4.396;2022-09-02T06:44:12;18.70;94.30
19829;DHT22;10075;50.924;4.396;2022-09-02T06:46:43;18.80;94.00
19829;DHT22;10075;50.924;4.396;2022-09-02T06:49:11;19.00;93.90
19829;DHT22;10075;50.924;4.396;2022-09-02T06:51:42;19.10;93.70
19829;DHT22;10075;50.924;4.396;2022-09-02T06:54:11;19.20;93.60
19829;DHT22;10075;50.924;4.396;2022-09-02T06:56:39;19.30;93.40
19829;DHT22;10075;50.924;4.396;2022-09-02T06:59:06;19.40;93.20
19829;DHT22;10075;50.924;4.396;2022-09-02T07:01:33;19.50;93.10
19829;DHT22;10075;50.924;4.396;2022-09-02T07:04:02;19.60;93.00
19829;DHT22;10075;50.924;4.396;2022-09-02T07:06:49;19.70;92.90
19829;DHT22;10075;50.924;4.396;2022-09-02T07:09:19;19.80;92.70
19829;DHT22;10075;50.924;4.396;2022-09-02T07:11:47;19.80;92.60
19829;DHT22;10075;50.924;4.396;2022-09-02T07:14:15;19.90;92.50
19829;DHT22;10075;50.924;4.396;2022-09-02T07:16:45;20.00;92.40
19829;DHT22;10075;50.924;4.396;2022-09-02T07:19:13;20.20;92.20
19829;DHT22;10075;50.924;4.396;2022-09-02T07:21:40;20.20;92.10
19829;DHT22;10075;50.924;4.396;2022-09-02T07:24:10;20.30;92.10
19829;DHT22;10075;50.924;4.396;2022-09-02T07:26:38;20.40;92.00
19829;DHT22;10075;50.924;4.396;2022-09-02T07:29:05;20.50;92.00
19829;DHT22;10075;50.924;4.396;2022-09-02T07:31:34;20.60;92.00
19829;DHT22;10075;50.924;4.396;2022-09-02T07:34:01;20.70;91.80
19829;DHT22;10075;50.924;4.396;2022-09-02T07:36:31;20.80;91.70
19829;DHT22;10075;50.924;4.396;2022-09-02T07:38:59;20.90;91.60
19829;DHT22;10075;50.924;4.396;2022-09-02T07:41:28;21.00;91.60
19829;DHT22;10075;50.924;4.396;2022-09-02T07:43:55;21.10;91.40
19829;DHT22;10075;50.924;4.396;2022-09-02T07:46:22;21.30;91.20
19829;DHT22;10075;50.924;4.396;2022-09-02T07:48:49;21.50;90.70
19829;DHT22;10075;50.924;4.396;2022-09-02T07:51:16;21.60;90.10
19829;DHT22;10075;50.924;4.396;2022-09-02T07:53:44;21.70;89.30
19829;DHT22;10075;50.924;4.396;2022-09-02T07:56:12;21.90;89.00
19829;DHT22;10075;50.924;4.396;2022-09-02T07:58:42;22.00;89.40
19829;DHT22;10075;50.924;4.396;2022-09-02T08:01:09;22.00;88.50
19829;DHT22;10075;50.924;4.396;2022-09-02T08:03:38;22.00;88.50
19829;DHT22;10075;50.924;4.396;2022-09-02T08:06:05;22.20;88.60
19829;DHT22;10075;50.924;4.396;2022-09-02T08:08:33;22.30;88.40
19829;DHT22;10075;50.924;4.396;2022-09-02T08:11:00;22.40;87.80
19829;DHT22;10075;50.924;4.396;2022-09-02T08:13:27;22.50;87.40
19829;DHT22;10075;50.924;4.396;2022-09-02T08:15:56;22.60;87.10
19829;DHT22;10075;50.924;4.396;2022-09-02T08:18:23;22.70;86.90
19829;DHT22;10075;50.924;4.396;2022-09-02T08:20:50;22.70;86.80
19829;DHT22;10075;50.924;4.396;2022-09-02T08:23:17;22.80;87.10
19829;DHT22;10075;50.924;4.396;2022-09-02T08:25:44;22.90;86.90
19829;DHT22;10075;50.924;4.396;2022-09-02T08:28:11;23.00;86.60
19829;DHT22;10075;50.924;4.396;2022-09-02T08:30:39;23.00;86.30
19829;DHT22;10075;50.924;4.396;2022-09-02T08:33:07;23.10;86.70
19829;DHT22;10075;50.924;4.396;2022-09-02T08:35:34;23.20;86.10
19829;DHT22;10075;50.924;4.396;2022-09-02T08:38:01;23.30;85.80
19829;DHT22;10075;50.924;4.396;2022-09-02T08:40:34;23.40;85.50
19829;DHT22;10075;50.924;4.396;2022-09-02T08:43:24;23.40;85.70
19829;DHT22;10075;50.924;4.396;2022-09-02T08:45:57;23.60;85.40
19829;DHT22;10075;50.924;4.396;2022-09-02T08:48:33;23.60;85.30
19829;DHT22;10075;50.924;4.396;2022-09-02T08:51:06;23.80;85.00
19829;DHT22;10075;50.924;4.396;2022-09-02T08:53:39;23.80;84.60
19829;DHT22;10075;50.924;4.396;2022-09-02T08:56:09;23.90;84.30
19829;DHT22;10075;50.924;4.396;2022-09-02T08:58:40;24.00;85.20
19829;DHT22;10075;50.924;4.396;2022-09-02T09:01:13;24.10;83.70
19829;DHT22;10075;50.924;4.396;2022-09-02T09:04:02;24.20;83.70
19829;DHT22;10075;50.924;4.396;2022-09-02T09:06:36;24.30;83.20
19829;DHT22;10075;50.924;4.396;2022-09-02T09:09:13;24.30;83.40
19829;DHT22;10075;50.924;4.396;2022-09-02T09:11:49;24.40;82.90
19829;DHT22;10075;50.924;4.396;2022-09-02T09:14:27;24.40;82.80
19829;DHT22;10075;50.924;4.396;2022-09-02T09:16:58;24.50;82.40
19829;DHT22;10075;50.924;4.396;2022-09-02T09:19:35;24.60;82.50
19829;DHT22;10075;50.924;4.396;2022-09-02T09:22:03;24.60;82.40
19829;DHT22;10075;50.924;4.396;2022-09-02T09:24:35;24.70;82.80
19829;DHT22;10075;50.924;4.396;2022-09-02T09:27:07;24.80;82.30
19829;DHT22;10075;50.924;4.396;2022-09-02T09:29:35;24.90;81.50
19829;DHT22;10075;50.924;4.396;2022-09-02T09:32:04;25.00;81.20
19829;DHT22;10075;50.924;4.396;2022-09-02T09:34:54;25.00;81.10
19829;DHT22;10075;50.924;4.396;2022-09-02T09:37:29;25.10;81.10
19829;DHT22;10075;50.924;4.396;2022-09-02T09:39:56;25.10;81.60
19829;DHT22;10075;50.924;4.396;2022-09-02T09:42:32;25.10;80.80
19829;DHT22;10075;50.924;4.396;2022-09-02T09:44:59;25.30;81.30
19829;DHT22;10075;50.924;4.396;2022-09-02T09:47:37;25.30;80.70
19829;DHT22;10075;50.924;4.396;2022-09-02T09:50:15;25.40;80.80
19829;DHT22;10075;50.924;4.396;2022-09-02T09:52:43;25.50;81.10
19829;DHT22;10075;50.924;4.396;2022-09-02T09:55:16;25.60;79.90
19829;DHT22;10075;50.924;4.396;2022-09-02T09:57:46;25.70;79.20
19829;DHT22;10075;50.924;4.396;2022-09-02T10:00:19;25.80;78.60
19829;DHT22;10075;50.924;4.396;2022-09-02T10:02:49;25.90;78.40
19829;DHT22;10075;50.924;4.396;2022-09-02T10:05:27;26.00;78.10
19829;DHT22;10075;50.924;4.396;2022-09-02T10:07:57;26.10;77.70
19829;DHT22;10075;50.924;4.396;2022-09-02T10:10:26;26.20;77.70
19829;DHT22;10075;50.924;4.396;2022-09-02T10:12:57;26.30;77.50
19829;DHT22;10075;50.924;4.396;2022-09-02T10:15:33;26.40;77.20
19829;DHT22;10075;50.924;4.396;2022-09-02T10:18:14;26.60;76.70
19829;DHT22;10075;50.924;4.396;2022-09-02T10:20:51;26.60;76.00
19829;DHT22;10075;50.924;4.396;2022-09-02T10:23:38;26.70;76.00
19829;DHT22;10075;50.924;4.396;2022-09-02T10:26:15;26.80;75.70
19829;DHT22;10075;50.924;4.396;2022-09-02T10:31:59;27.00;75.70
19829;DHT22;10075;50.924;4.396;2022-09-02T10:34:36;26.90;75.60
19829;DHT22;10075;50.924;4.396;2022-09-02T10:37:13;27.00;75.10
19829;DHT22;10075;50.924;4.396;2022-09-02T10:40:05;27.10;74.70
19829;DHT22;10075;50.924;4.396;2022-09-02T10:42:42;27.20;73.90
19829;DHT22;10075;50.924;4.396;2022-09-02T10:45:14;27.10;73.70
19829;DHT22;10075;50.924;4.396;2022-09-02T10:47:47;27.10;73.60
19829;DHT22;10075;50.924;4.396;2022-09-02T10:50:19;27.20;73.40
19829;DHT22;10075;50.924;4.396;2022-09-02T10:53:16;27.20;73.90
19829;DHT22;10075;50.924;4.396;2022-09-02T10:55:53;27.30;73.60
19829;DHT22;10075;50.924;4.396;2022-09-02T10:58:33;27.30;72.70
19829;DHT22;10075;50.924;4.396;2022-09-02T11:01:05;27.40;72.00
19829;DHT22;10075;50.924;4.396;2022-09-02T11:03:37;27.40;71.90
19829;DHT22;10075;50.924;4.396;2022-09-02T11:06:10;27.60;72.00
19829;DHT22;10075;50.924;4.396;2022-09-02T11:08:42;27.60;71.60
19829;DHT22;10075;50.924;4.396;2022-09-02T11:11:14;27.60;71.60
19829;DHT22;10075;50.924;4.396;2022-09-02T11:13:56;27.70;70.60
19829;DHT22;10075;50.924;4.396;2022-09-02T11:16:29;27.80;69.80
19829;DHT22;10075;50.924;4.396;2022-09-02T11:19:02;27.80;68.80
19829;DHT22;10075;50.924;4.396;2022-09-02T11:21:43;27.90;68.20
19829;DHT22;10075;50.924;4.396;2022-09-02T11:24:20;27.90;69.10
19829;DHT22;10075;50.924;4.396;2022-09-02T11:26:54;28.00;69.30
19829;DHT22;10075;50.924;4.396;2022-09-02T11:29:33;28.10;69.40
19829;DHT22;10075;50.924;4.396;2022-09-02T11:32:09;28.20;68.00
19829;DHT22;10075;50.924;4.396;2022-09-02T11:34:42;28.30;67.90
19829;DHT22;10075;50.924;4.396;2022-09-02T11:37:12;28.30;66.10
19829;DHT22;10075;50.924;4.396;2022-09-02T11:39:46;28.30;66.30
19829;DHT22;10075;50.924;4.396;2022-09-02T11:42:25;28.30;66.30
19829;DHT22;10075;50.924;4.396;2022-09-02T11:45:10;28.30;65.50
19829;DHT22;10075;50.924;4.396;2022-09-02T11:47:58;28.40;64.50
19829;DHT22;10075;50.924;4.396;2022-09-02T11:50:51;28.50;64.70
19829;DHT22;10075;50.924;4.396;2022-09-02T11:53:24;28.60;64.10
19829;DHT22;10075;50.924;4.396;2022-09-02T11:55:58;28.70;63.70
19829;DHT22;10075;50.924;4.396;2022-09-02T11:58:35;28.80;64.50
19829;DHT22;10075;50.924;4.396;2022-09-02T12:03:54;28.90;63.50
19829;DHT22;10075;50.924;4.396;2022-09-02T12:06:22;28.90;64.00
19829;DHT22;10075;50.924;4.396;2022-09-02T12:09:05;29.00;63.40
19829;DHT22;10075;50.924;4.396;2022-09-02T12:11:39;29.30;61.70
19829;DHT22;10075;50.924;4.396;2022-09-02T12:14:07;29.40;61.00
19829;DHT22;10075;50.924;4.396;2022-09-02T12:16:42;29.40;60.10
19829;DHT22;10075;50.924;4.396;2022-09-02T12:19:27;29.50;59.80
19829;DHT22;10075;50.924;4.396;2022-09-02T12:22:32;29.60;60.30
19829;DHT22;10075;50.924;4.396;2022-09-02T12:25:04;29.80;59.40
19829;DHT22;10075;50.924;4.396;2022-09-02T12:27:36;30.00;60.00
19829;DHT22;10075;50.924;4.396;2022-09-02T12:30:05;30.10;59.10
19829;DHT22;10075;50.924;4.396;2022-09-02T12:33:01;30.20;58.50
19829;DHT22;10075;50.924;4.396;2022-09-02T12:35:32;30.20;58.10
19829;DHT22;10075;50.924;4.396;2022-09-02T12:38:31;30.10;56.90
19829;DHT22;10075;50.924;4.396;2022-09-02T12:41:18;30.20;57.60
19829;DHT22;10075;50.924;4.396;2022-09-02T12:43:54;30.30;58.00
19829;DHT22;10075;50.924;4.396;2022-09-02T12:46:29;30.40;58.00
19829;DHT22;10075;50.924;4.396;2022-09-02T12:49:04;30.70;57.00
19829;DHT22;10075;50.924;4.396;2022-09-02T12:51:54;30.70;57.30
19829;DHT22;10075;50.924;4.396;2022-09-02T12:54:25;30.80;57.20
19829;DHT22;10075;50.924;4.396;2022-09-02T12:56:53;30.70;56.80
19829;DHT22;10075;50.924;4.396;2022-09-02T12:59:27;30.60;57.00
19829;DHT22;10075;50.924;4.396;2022-09-02T13:02:13;30.60;58.00
19829;DHT22;10075;50.924;4.396;2022-09-02T13:04:50;30.70;57.30
19829;DHT22;10075;50.924;4.396;2022-09-02T13:07:54;30.60;56.70
19829;DHT22;10075;50.924;4.396;2022-09-02T13:10:44;30.60;56.70
19829;DHT22;10075;50.924;4.396;2022-09-02T13:13:49;30.70;56.30
19829;DHT22;10075;50.924;4.396;2022-09-02T13:16:32;30.70;55.70
19829;DHT22;10075;50.924;4.396;2022-09-02T13:22:28;30.80;54.50
19829;DHT22;10075;50.924;4.396;2022-09-02T13:31:18;30.50;54.60
19829;DHT22;10075;50.924;4.396;2022-09-02T13:33:55;30.40;54.60
19829;DHT22;10075;50.924;4.396;2022-09-02T13:36:27;30.30;55.10
19829;DHT22;10075;50.924;4.396;2022-09-02T13:38:54;30.20;55.10
19829;DHT22;10075;50.924;4.396;2022-09-02T13:41:29;30.20;54.80
19829;DHT22;10075;50.924;4.396;2022-09-02T13:44:09;30.30;54.70
19829;DHT22;10075;50.924;4.396;2022-09-02T13:46:47;30.50;54.70
19829;DHT22;10075;50.924;4.396;2022-09-02T13:49:21;30.60;53.60
19829;DHT22;10075;50.924;4.396;2022-09-02T13:51:52;30.60;52.90
19829;DHT22;10075;50.924;4.396;2022-09-02T13:54:27;30.60;53.10
19829;DHT22;10075;50.924;4.396;2022-09-02T13:56:55;30.60;53.00
19829;DHT22;10075;50.924;4.396;2022-09-02T13:59:33;30.70;53.00
19829;DHT22;10075;50.924;4.396;2022-09-02T14:02:16;30.80;52.60
19829;DHT22;10075;50.924;4.396;2022-09-02T14:04:45;30.90;52.40
19829;DHT22;10075;50.924;4.396;2022-09-02T14:07:13;31.00;51.60
19829;DHT22;10075;50.924;4.396;2022-09-02T14:09:43;31.10;51.60
19829;DHT22;10075;50.924;4.396;2022-09-02T14:12:11;31.20;51.20
19829;DHT22;10075;50.924;4.396;2022-09-02T14:14:40;31.20;50.90
19829;DHT22;10075;50.924;4.396;2022-09-02T14:17:18;31.20;50.40
19829;DHT22;10075;50.924;4.396;2022-09-02T14:19:47;31.20;50.10
19829;DHT22;10075;50.924;4.396;2022-09-02T14:22:26;31.20;50.00
19829;DHT22;10075;50.924;4.396;2022-09-02T14:24:54;31.20;49.70
19829;DHT22;10075;50.924;4.396;2022-09-02T14:27:22;31.20;49.80
19829;DHT22;10075;50.924;4.396;2022-09-02T14:29:55;31.20;50.20
19829;DHT22;10075;50.924;4.396;2022-09-02T14:32:24;31.30;50.50
19829;DHT22;10075;50.924;4.396;2022-09-02T14:35:17;31.20;50.40
19829;DHT22;10075;50.924;4.396;2022-09-02T14:37:50;31.30;50.20
19829;DHT22;10075;50.924;4.396;2022-09-02T14:40:33;31.30;50.90
19829;DHT22;10075;50.924;4.396;2022-09-02T14:43:02;31.50;51.30
19829;DHT22;10075;50.924;4.396;2022-09-02T14:45:31;31.60;50.70
19829;DHT22;10075;50.924;4.396;2022-09-02T14:48:12;31.70;50.30
19829;DHT22;10075;50.924;4.396;2022-09-02T14:50:41;32.00;49.70
19829;DHT22;10075;50.924;4.396;2022-09-02T14:53:09;32.70;49.50
19829;DHT22;10075;50.924;4.396;2022-09-02T14:55:48;33.10;48.90
19829;DHT22;10075;50.924;4.396;2022-09-02T14:58:18;34.00;48.80
19829;DHT22;10075;50.924;4.396;2022-09-02T15:00:47;35.40;47.60
19829;DHT22;10075;50.924;4.396;2022-09-02T15:03:15;36.90;45.20
19829;DHT22;10075;50.924;4.396;2022-09-02T15:05:44;38.40;43.80
19829;DHT22;10075;50.924;4.396;2022-09-02T15:08:11;39.30;42.10
19829;DHT22;10075;50.924;4.396;2022-09-02T15:10:39;40.40;40.30
19829;DHT22;10075;50.924;4.396;2022-09-02T15:13:08;41.10;40.00
19829;DHT22;10075;50.924;4.396;2022-09-02T15:15:37;42.10;39.40
19829;DHT22;10075;50.924;4.396;2022-09-02T15:18:04;43.50;37.50
19829;DHT22;10075;50.924;4.396;2022-09-02T15:20:32;44.50;35.40
19829;DHT22;10075;50.924;4.396;2022-09-02T15:23:01;45.20;34.20
19829;DHT22;10075;50.924;4.396;2022-09-02T15:25:29;45.90;33.60
19829;DHT22;10075;50.924;4.396;2022-09-02T15:27:59;46.40;33.60
19829;DHT22;10075;50.924;4.396;2022-09-02T15:30:27;46.90;32.70
19829;DHT22;10075;50.924;4.396;2022-09-02T15:32:54;47.00;32.20
19829;DHT22;10075;50.924;4.396;2022-09-02T15:35:21;47.30;32.20
19829;DHT22;10075;50.924;4.396;2022-09-02T15:37:49;46.30;32.00
19829;DHT22;10075;50.924;4.396;2022-09-02T15:40:17;44.70;32.80
19829;DHT22;10075;50.924;4.396;2022-09-02T15:42:44;42.80;34.30
19829;DHT22;10075;50.924;4.396;2022-09-02T15:45:11;41.20;36.50
19829;DHT22;10075;50.924;4.396;2022-09-02T15:47:39;40.00;36.50
19829;DHT22;10075;50.924;4.396;2022-09-02T15:50:07;39.40;38.40
19829;DHT22;10075;50.924;4.396;2022-09-02T15:52:35;39.70;38.40
19829;DHT22;10075;50.924;4.396;2022-09-02T15:55:04;40.00;37.50
19829;DHT22;10075;50.924;4.396;2022-09-02T15:57:33;39.60;37.90
19829;DHT22;10075;50.924;4.396;2022-09-02T16:00:00;39.10;38.00
19829;DHT22;10075;50.924;4.396;2022-09-02T16:02:27;38.60;38.40
19829;DHT22;10075;50.924;4.396;2022-09-02T16:04:54;38.50;38.60
19829;DHT22;10075;50.924;4.396;2022-09-02T16:07:21;39.40;38.50
19829;DHT22;10075;50.924;4.396;2022-09-02T16:09:48;40.40;37.40